sensor_id;sensor_type;location;lat;lon;timestamp;temperature;humidity
2897;DHT22;1458;49.728;9.228;2023-07-31T00:00:29;16.50;92.90
2897;DHT22;1458;49.728;9.228;2023-07-31T00:02:58;16.50;92.10
2897;DHT22;1458;49.728;9.228;2023-07-31T00:05:26;16.50;91.70
2897;DHT22;1458;49.728;9.228;2023-07-31T00:07:53;16.50;91.20
2897;DHT22;1458;49.728;9.228;2023-07-31T00:10:21;16.70;90.10
2897;DHT22;1458;49.728;9.228;2023-07-31T00:12:48;16.70;91.30
2897;DHT22;1458;49.728;9.228;2023-07-31T00:15:15;16.70;90.50
2897;DHT22;1458;49.728;9.228;2023-07-31T00:17:43;16.80;90.60
2897;DHT22;1458;49.728;9.228;2023-07-31T00:20:12;16.90;90.90
2897;DHT22;1458;49.728;9.228;2023-07-31T00:22:39;16.90;91.10
2897;DHT22;1458;49.728;9.228;2023-07-31T00:25:07;16.80;91.20
2897;DHT22;1458;49.728;9.228;2023-07-31T00:27:35;16.80;90.60
2897;DHT22;1458;49.728;9.228;2023-07-31T00:30:02;16.80;91.10
2897;DHT22;1458;49.728;9.228;2023-07-31T00:32:32;16.80;91.30
2897;DHT22;1458;49.728;9.228;2023-07-31T00:34:59;16.80;91.80
2897;DHT22;1458;49.728;9.228;2023-07-31T00:37:31;17.00;89.50
2897;DHT22;1458;49.728;9.228;2023-07-31T00:39:59;17.30;86.20
2897;DHT22;1458;49.728;9.228;2023-07-31T00:42:26;17.30;85.30
2897;DHT22;1458;49.728;9.228;2023-07-31T00:44:54;17.40;84.00
2897;DHT22;1458;49.728;9.228;2023-07-31T00:47:21;17.40;84.80
2897;DHT22;1458;49.728;9.228;2023-07-31T00:49:49;17.50;82.20
2897;DHT22;1458;49.728;9.228;2023-07-31T00:52:17;17.60;81.90
2897;DHT22;1458;49.728;9.228;2023-07-31T00:54:46;17.70;80.60
2897;DHT22;1458;49.728;9.228;2023-07-31T00:57:13;17.70;79.90
2897;DHT22;1458;49.728;9.228;2023-07-31T00:59:41;17.80;80.00
2897;DHT22;1458;49.728;9.228;2023-07-31T01:02:08;17.80;79.60
2897;DHT22;1458;49.728;9.228;2023-07-31T01:04:36;17.80;80.20
2897;DHT22;1458;49.728;9.228;2023-07-31T01:07:08;17.80;78.70
2897;DHT22;1458;49.728;9.228;2023-07-31T01:09:44;17.80;79.20
2897;DHT22;1458;49.728;9.228;2023-07-31T01:12:17;17.80;78.50
2897;DHT22;1458;49.728;9.228;2023-07-31T01:15:03;17.80;77.80
2897;DHT22;1458;49.728;9.228;2023-07-31T01:17:31;18.00;75.60
2897;DHT22;1458;49.728;9.228;2023-07-31T01:20:01;18.10;75.50
2897;DHT22;1458;49.728;9.228;2023-07-31T01:22:40;18.10;75.40
2897;DHT22;1458;49.728;9.228;2023-07-31T01:25:33;18.10;75.30
2897;DHT22;1458;49.728;9.228;2023-07-31T01:28:27;18.10;74.70
2897;DHT22;1458;49.728;9.228;2023-07-31T01:31:00;18.20;74.80
2897;DHT22;1458;49.728;9.228;2023-07-31T01:33:30;18.30;74.00
2897;DHT22;1458;49.728;9.228;2023-07-31T01:35:58;18.20;73.70
2897;DHT22;1458;49.728;9.228;2023-07-31T01:38:25;18.30;72.90
2897;DHT22;1458;49.728;9.228;2023-07-31T01:40:54;18.40;72.80
2897;DHT22;1458;49.728;9.228;2023-07-31T01:43:25;18.40;71.50
2897;DHT22;1458;49.728;9.228;2023-07-31T01:45:52;18.40;70.90
2897;DHT22;1458;49.728;9.228;2023-07-31T01:48:20;18.40;71.70
2897;DHT22;1458;49.728;9.228;2023-07-31T01:50:48;18.40;71.70
2897;DHT22;1458;49.728;9.228;2023-07-31T01:53:15;18.40;71.70
2897;DHT22;1458;49.728;9.228;2023-07-31T01:55:42;18.40;71.20
2897;DHT22;1458;49.728;9.228;2023-07-31T01:58:11;18.40;71.00
2897;DHT22;1458;49.728;9.228;2023-07-31T02:00:38;18.40;71.40
2897;DHT22;1458;49.728;9.228;2023-07-31T02:03:06;18.50;70.50
2897;DHT22;1458;49.728;9.228;2023-07-31T02:05:33;18.50;70.10
2897;DHT22;1458;49.728;9.228;2023-07-31T02:08:01;18.60;70.00
2897;DHT22;1458;49.728;9.228;2023-07-31T02:10:28;18.60;69.60
2897;DHT22;1458;49.728;9.228;2023-07-31T02:12:56;18.60;70.20
2897;DHT22;1458;49.728;9.228;2023-07-31T02:15:25;18.60;70.00
2897;DHT22;1458;49.728;9.228;2023-07-31T02:17:52;18.50;69.90
2897;DHT22;1458;49.728;9.228;2023-07-31T02:20:19;18.50;70.60
2897;DHT22;1458;49.728;9.228;2023-07-31T02:22:47;18.40;71.40
2897;DHT22;1458;49.728;9.228;2023-07-31T02:25:14;18.40;71.10
2897;DHT22;1458;49.728;9.228;2023-07-31T02:27:42;18.40;70.90
2897;DHT22;1458;49.728;9.228;2023-07-31T02:30:11;18.40;70.90
2897;DHT22;1458;49.728;9.228;2023-07-31T02:32:40;18.40;70.90
2897;DHT22;1458;49.728;9.228;2023-07-31T02:35:08;18.50;70.90
2897;DHT22;1458;49.728;9.228;2023-07-31T02:37:36;18.40;70.50
2897;DHT22;1458;49.728;9.228;2023-07-31T02:40:05;18.50;69.50
2897;DHT22;1458;49.728;9.228;2023-07-31T02:42:33;18.40;70.40
2897;DHT22;1458;49.728;9.228;2023-07-31T02:45:01;18.40;71.10
2897;DHT22;1458;49.728;9.228;2023-07-31T02:47:28;18.40;70.50
2897;DHT22;1458;49.728;9.228;2023-07-31T02:49:57;18.40;70.90
2897;DHT22;1458;49.728;9.228;2023-07-31T02:52:25;18.40;70.60
2897;DHT22;1458;49.728;9.228;2023-07-31T02:54:52;18.30;71.00
2897;DHT22;1458;49.728;9.228;2023-07-31T02:57:20;18.40;71.20
2897;DHT22;1458;49.728;9.228;2023-07-31T02:59:47;18.30;71.20
2897;DHT22;1458;49.728;9.228;2023-07-31T03:02:14;18.40;71.10
2897;DHT22;1458;49.728;9.228;2023-07-31T03:04:42;18.30;71.30
2897;DHT22;1458;49.728;9.228;2023-07-31T03:07:11;18.40;70.90
2897;DHT22;1458;49.728;9.228;2023-07-31T03:09:38;18.30;71.60
2897;DHT22;1458;49.728;9.228;2023-07-31T03:12:07;18.30;70.90
2897;DHT22;1458;49.728;9.228;2023-07-31T03:14:36;18.30;71.00
2897;DHT22;1458;49.728;9.228;2023-07-31T03:17:03;18.30;71.20
2897;DHT22;1458;49.728;9.228;2023-07-31T03:19:31;18.20;72.50
2897;DHT22;1458;49.728;9.228;2023-07-31T03:21:59;18.20;71.60
2897;DHT22;1458;49.728;9.228;2023-07-31T03:24:30;18.30;71.60
2897;DHT22;1458;49.728;9.228;2023-07-31T03:26:57;18.20;72.00
2897;DHT22;1458;49.728;9.228;2023-07-31T03:29:26;18.20;72.10
2897;DHT22;1458;49.728;9.228;2023-07-31T03:31:54;18.20;71.30
2897;DHT22;1458;49.728;9.228;2023-07-31T03:34:21;18.20;72.00
2897;DHT22;1458;49.728;9.228;2023-07-31T03:36:49;18.20;71.60
2897;DHT22;1458;49.728;9.228;2023-07-31T03:39:16;18.20;72.00
2897;DHT22;1458;49.728;9.228;2023-07-31T03:41:45;18.30;72.20
2897;DHT22;1458;49.728;9.228;2023-07-31T03:44:12;18.20;72.10
2897;DHT22;1458;49.728;9.228;2023-07-31T03:46:40;18.20;72.60
2897;DHT22;1458;49.728;9.228;2023-07-31T03:49:07;18.20;72.10
2897;DHT22;1458;49.728;9.228;2023-07-31T03:51:35;18.20;72.50
2897;DHT22;1458;49.728;9.228;2023-07-31T03:54:02;18.10;72.70
2897;DHT22;1458;49.728;9.228;2023-07-31T03:56:29;18.20;73.10
2897;DHT22;1458;49.728;9.228;2023-07-31T03:58:58;18.10;72.90
2897;DHT22;1458;49.728;9.228;2023-07-31T04:01:26;18.10;73.20
2897;DHT22;1458;49.728;9.228;2023-07-31T04:03:54;18.10;73.00
2897;DHT22;1458;49.728;9.228;2023-07-31T04:06:21;18.10;73.50
2897;DHT22;1458;49.728;9.228;2023-07-31T04:08:48;18.10;73.40
2897;DHT22;1458;49.728;9.228;2023-07-31T04:11:16;18.00;73.80
2897;DHT22;1458;49.728;9.228;2023-07-31T04:13:43;18.00;74.10
2897;DHT22;1458;49.728;9.228;2023-07-31T04:16:12;18.00;73.60
2897;DHT22;1458;49.728;9.228;2023-07-31T04:18:39;18.00;73.50
2897;DHT22;1458;49.728;9.228;2023-07-31T04:21:07;18.00;73.90
2897;DHT22;1458;49.728;9.228;2023-07-31T04:23:35;18.00;74.20
2897;DHT22;1458;49.728;9.228;2023-07-31T04:26:03;18.00;74.00
2897;DHT22;1458;49.728;9.228;2023-07-31T04:28:30;18.00;74.10
2897;DHT22;1458;49.728;9.228;2023-07-31T04:30:58;18.10;73.80
2897;DHT22;1458;49.728;9.228;2023-07-31T04:33:26;18.00;74.60
2897;DHT22;1458;49.728;9.228;2023-07-31T04:35:54;18.00;73.60
2897;DHT22;1458;49.728;9.228;2023-07-31T04:38:21;18.10;74.00
2897;DHT22;1458;49.728;9.228;2023-07-31T04:40:49;18.00;74.00
2897;DHT22;1458;49.728;9.228;2023-07-31T04:43:16;18.00;74.60
2897;DHT22;1458;49.728;9.228;2023-07-31T04:45:45;18.10;74.60
2897;DHT22;1458;49.728;9.228;2023-07-31T04:48:14;18.10;74.70
2897;DHT22;1458;49.728;9.228;2023-07-31T04:50:43;18.10;74.70
2897;DHT22;1458;49.728;9.228;2023-07-31T04:53:10;18.10;74.70
2897;DHT22;1458;49.728;9.228;2023-07-31T04:55:37;18.20;74.70
2897;DHT22;1458;49.728;9.228;2023-07-31T04:58:05;18.20;74.70
2897;DHT22;1458;49.728;9.228;2023-07-31T05:00:31;18.20;73.70
2897;DHT22;1458;49.728;9.228;2023-07-31T05:02:58;18.30;74.90
2897;DHT22;1458;49.728;9.228;2023-07-31T05:05:26;18.40;74.90
2897;DHT22;1458;49.728;9.228;2023-07-31T05:07:55;18.50;73.90
2897;DHT22;1458;49.728;9.228;2023-07-31T05:10:23;18.50;73.90
2897;DHT22;1458;49.728;9.228;2023-07-31T05:12:50;18.50;73.70
2897;DHT22;1458;49.728;9.228;2023-07-31T05:15:18;18.60;73.00
2897;DHT22;1458;49.728;9.228;2023-07-31T05:17:45;18.60;73.00
2897;DHT22;1458;49.728;9.228;2023-07-31T05:20:12;18.60;73.30
2897;DHT22;1458;49.728;9.228;2023-07-31T05:22:40;18.70;73.20
2897;DHT22;1458;49.728;9.228;2023-07-31T05:25:09;18.70;72.00
2897;DHT22;1458;49.728;9.228;2023-07-31T05:27:37;18.70;72.30
2897;DHT22;1458;49.728;9.228;2023-07-31T05:30:05;18.60;72.30
2897;DHT22;1458;49.728;9.228;2023-07-31T05:32:33;18.70;72.60
2897;DHT22;1458;49.728;9.228;2023-07-31T05:35:01;18.70;72.90
2897;DHT22;1458;49.728;9.228;2023-07-31T05:37:28;18.80;72.20
2897;DHT22;1458;49.728;9.228;2023-07-31T05:39:56;18.90;71.90
2897;DHT22;1458;49.728;9.228;2023-07-31T05:42:25;18.90;72.10
2897;DHT22;1458;49.728;9.228;2023-07-31T05:44:53;18.90;71.30
2897;DHT22;1458;49.728;9.228;2023-07-31T05:47:20;18.90;72.40
2897;DHT22;1458;49.728;9.228;2023-07-31T05:49:48;18.90;72.10
2897;DHT22;1458;49.728;9.228;2023-07-31T05:52:18;19.00;72.20
2897;DHT22;1458;49.728;9.228;2023-07-31T05:54:45;19.00;72.00
2897;DHT22;1458;49.728;9.228;2023-07-31T05:57:14;19.00;71.30
2897;DHT22;1458;49.728;9.228;2023-07-31T05:59:42;19.00;71.00
2897;DHT22;1458;49.728;9.228;2023-07-31T06:02:10;19.00;71.30
2897;DHT22;1458;49.728;9.228;2023-07-31T06:04:37;19.00;71.00
2897;DHT22;1458;49.728;9.228;2023-07-31T06:07:05;19.10;72.00
2897;DHT22;1458;49.728;9.228;2023-07-31T06:09:32;19.20;71.20
2897;DHT22;1458;49.728;9.228;2023-07-31T06:12:00;19.20;70.40
2897;DHT22;1458;49.728;9.228;2023-07-31T06:14:27;19.20;70.90
2897;DHT22;1458;49.728;9.228;2023-07-31T06:16:56;19.30;71.30
2897;DHT22;1458;49.728;9.228;2023-07-31T06:19:23;19.30;70.80
2897;DHT22;1458;49.728;9.228;2023-07-31T06:21:50;19.30;70.80
2897;DHT22;1458;49.728;9.228;2023-07-31T06:24:18;19.30;71.10
2897;DHT22;1458;49.728;9.228;2023-07-31T06:26:46;19.40;70.40
2897;DHT22;1458;49.728;9.228;2023-07-31T06:29:13;19.30;70.70
2897;DHT22;1458;49.728;9.228;2023-07-31T06:31:41;19.30;70.80
2897;DHT22;1458;49.728;9.228;2023-07-31T06:34:10;19.20;70.50
2897;DHT22;1458;49.728;9.228;2023-07-31T06:36:37;19.30;70.50
2897;DHT22;1458;49.728;9.228;2023-07-31T06:39:04;19.30;71.10
2897;DHT22;1458;49.728;9.228;2023-07-31T06:41:32;19.40;71.60
2897;DHT22;1458;49.728;9.228;2023-07-31T06:44:01;19.40;70.70
2897;DHT22;1458;49.728;9.228;2023-07-31T06:46:28;19.60;70.40
2897;DHT22;1458;49.728;9.228;2023-07-31T06:48:56;19.70;70.80
2897;DHT22;1458;49.728;9.228;2023-07-31T06:51:25;19.80;69.80
2897;DHT22;1458;49.728;9.228;2023-07-31T06:53:52;20.00;70.70
2897;DHT22;1458;49.728;9.228;2023-07-31T06:56:21;20.10;69.60
2897;DHT22;1458;49.728;9.228;2023-07-31T06:58:48;20.10;68.00
2897;DHT22;1458;49.728;9.228;2023-07-31T07:01:16;20.10;69.50
2897;DHT22;1458;49.728;9.228;2023-07-31T07:03:43;20.50;68.40
2897;DHT22;1458;49.728;9.228;2023-07-31T07:06:10;20.40;68.60
2897;DHT22;1458;49.728;9.228;2023-07-31T07:08:39;20.50;68.60
2897;DHT22;1458;49.728;9.228;2023-07-31T07:11:06;20.40;67.70
2897;DHT22;1458;49.728;9.228;2023-07-31T07:13:34;20.50;67.20
2897;DHT22;1458;49.728;9.228;2023-07-31T07:16:01;20.50;67.30
2897;DHT22;1458;49.728;9.228;2023-07-31T07:18:29;20.60;67.80
2897;DHT22;1458;49.728;9.228;2023-07-31T07:20:56;20.60;67.30
2897;DHT22;1458;49.728;9.228;2023-07-31T07:23:24;20.60;68.40
2897;DHT22;1458;49.728;9.228;2023-07-31T07:25:53;20.70;66.10
2897;DHT22;1458;49.728;9.228;2023-07-31T07:28:20;20.60;66.30
2897;DHT22;1458;49.728;9.228;2023-07-31T07:30:51;20.40;67.20
2897;DHT22;1458;49.728;9.228;2023-07-31T07:33:19;20.60;67.40
2897;DHT22;1458;49.728;9.228;2023-07-31T07:35:47;20.90;66.80
2897;DHT22;1458;49.728;9.228;2023-07-31T07:38:14;20.90;66.60
2897;DHT22;1458;49.728;9.228;2023-07-31T07:40:42;21.00;65.20
2897;DHT22;1458;49.728;9.228;2023-07-31T07:43:11;20.90;66.60
2897;DHT22;1458;49.728;9.228;2023-07-31T07:45:38;20.80;66.40
2897;DHT22;1458;49.728;9.228;2023-07-31T07:48:05;20.60;66.40
2897;DHT22;1458;49.728;9.228;2023-07-31T07:50:33;20.60;67.80
2897;DHT22;1458;49.728;9.228;2023-07-31T07:53:00;20.80;66.80
2897;DHT22;1458;49.728;9.228;2023-07-31T07:55:28;21.00;67.00
2897;DHT22;1458;49.728;9.228;2023-07-31T07:57:56;21.50;65.80
2897;DHT22;1458;49.728;9.228;2023-07-31T08:00:24;21.70;65.60
2897;DHT22;1458;49.728;9.228;2023-07-31T08:02:52;21.90;65.40
2897;DHT22;1458;49.728;9.228;2023-07-31T08:05:19;22.20;63.30
2897;DHT22;1458;49.728;9.228;2023-07-31T08:07:46;22.30;62.70
2897;DHT22;1458;49.728;9.228;2023-07-31T08:10:14;22.20;62.60
2897;DHT22;1458;49.728;9.228;2023-07-31T08:12:41;22.30;61.60
2897;DHT22;1458;49.728;9.228;2023-07-31T08:15:09;22.20;61.60
2897;DHT22;1458;49.728;9.228;2023-07-31T08:17:38;22.30;61.20
2897;DHT22;1458;49.728;9.228;2023-07-31T08:20:07;22.50;62.10
2897;DHT22;1458;49.728;9.228;2023-07-31T08:22:35;22.40;62.50
2897;DHT22;1458;49.728;9.228;2023-07-31T08:25:03;22.10;62.00
2897;DHT22;1458;49.728;9.228;2023-07-31T08:27:31;22.00;61.80
2897;DHT22;1458;49.728;9.228;2023-07-31T08:29:58;22.00;62.70
2897;DHT22;1458;49.728;9.228;2023-07-31T08:32:26;22.30;62.80
2897;DHT22;1458;49.728;9.228;2023-07-31T08:34:55;22.60;61.40
2897;DHT22;1458;49.728;9.228;2023-07-31T08:37:22;23.00;61.00
2897;DHT22;1458;49.728;9.228;2023-07-31T08:39:49;23.30;60.20
2897;DHT22;1458;49.728;9.228;2023-07-31T08:42:17;23.40;59.50
2897;DHT22;1458;49.728;9.228;2023-07-31T08:44:45;22.70;57.80
2897;DHT22;1458;49.728;9.228;2023-07-31T08:47:14;22.50;59.50
2897;DHT22;1458;49.728;9.228;2023-07-31T08:49:43;22.30;60.50
2897;DHT22;1458;49.728;9.228;2023-07-31T08:52:14;22.40;60.70
2897;DHT22;1458;49.728;9.228;2023-07-31T08:54:42;22.20;60.10
2897;DHT22;1458;49.728;9.228;2023-07-31T08:57:10;22.10;61.50
2897;DHT22;1458;49.728;9.228;2023-07-31T08:59:38;22.20;60.10
2897;DHT22;1458;49.728;9.228;2023-07-31T09:02:08;22.00;60.10
2897;DHT22;1458;49.728;9.228;2023-07-31T09:04:35;22.00;62.20
2897;DHT22;1458;49.728;9.228;2023-07-31T09:07:04;22.20;61.20
2897;DHT22;1458;49.728;9.228;2023-07-31T09:09:34;22.30;60.20
2897;DHT22;1458;49.728;9.228;2023-07-31T09:12:01;22.40;59.20
2897;DHT22;1458;49.728;9.228;2023-07-31T09:14:29;22.50;58.50
2897;DHT22;1458;49.728;9.228;2023-07-31T09:16:58;22.50;58.70
2897;DHT22;1458;49.728;9.228;2023-07-31T09:19:26;22.60;58.40
2897;DHT22;1458;49.728;9.228;2023-07-31T09:21:56;22.70;58.30
2897;DHT22;1458;49.728;9.228;2023-07-31T09:24:27;23.10;56.70
2897;DHT22;1458;49.728;9.228;2023-07-31T09:26:58;23.40;54.50
2897;DHT22;1458;49.728;9.228;2023-07-31T09:29:27;23.50;53.50
2897;DHT22;1458;49.728;9.228;2023-07-31T09:31:55;23.50;52.20
2897;DHT22;1458;49.728;9.228;2023-07-31T09:34:29;23.40;53.30
2897;DHT22;1458;49.728;9.228;2023-07-31T09:37:01;23.40;53.30
2897;DHT22;1458;49.728;9.228;2023-07-31T09:39:29;23.20;54.80
2897;DHT22;1458;49.728;9.228;2023-07-31T09:41:59;23.40;50.90
2897;DHT22;1458;49.728;9.228;2023-07-31T09:44:39;23.50;52.50
2897;DHT22;1458;49.728;9.228;2023-07-31T09:47:21;23.70;53.60
2897;DHT22;1458;49.728;9.228;2023-07-31T09:49:50;23.60;52.30
2897;DHT22;1458;49.728;9.228;2023-07-31T09:52:18;23.80;51.80
2897;DHT22;1458;49.728;9.228;2023-07-31T09:54:46;23.60;51.20
2897;DHT22;1458;49.728;9.228;2023-07-31T09:57:17;23.50;52.60
2897;DHT22;1458;49.728;9.228;2023-07-31T09:59:46;23.80;49.90
2897;DHT22;1458;49.728;9.228;2023-07-31T10:02:19;23.90;49.90
2897;DHT22;1458;49.728;9.228;2023-07-31T10:04:49;23.90;49.90
2897;DHT22;1458;49.728;9.228;2023-07-31T10:07:18;24.30;49.70
2897;DHT22;1458;49.728;9.228;2023-07-31T10:09:47;24.20;50.20
2897;DHT22;1458;49.728;9.228;2023-07-31T10:12:19;23.90;50.80
2897;DHT22;1458;49.728;9.228;2023-07-31T10:14:49;24.10;51.90
2897;DHT22;1458;49.728;9.228;2023-07-31T10:17:18;23.80;51.20
2897;DHT22;1458;49.728;9.228;2023-07-31T10:19:46;23.60;49.40
2897;DHT22;1458;49.728;9.228;2023-07-31T10:22:15;23.30;52.30
2897;DHT22;1458;49.728;9.228;2023-07-31T10:24:45;23.40;52.10
2897;DHT22;1458;49.728;9.228;2023-07-31T10:27:13;23.50;52.00
2897;DHT22;1458;49.728;9.228;2023-07-31T10:29:44;23.60;50.50
2897;DHT22;1458;49.728;9.228;2023-07-31T10:32:14;23.30;49.20
2897;DHT22;1458;49.728;9.228;2023-07-31T10:34:43;23.20;51.30
2897;DHT22;1458;49.728;9.228;2023-07-31T10:37:21;23.50;51.80
2897;DHT22;1458;49.728;9.228;2023-07-31T10:39:57;23.90;50.00
2897;DHT22;1458;49.728;9.228;2023-07-31T10:42:31;23.90;49.20
2897;DHT22;1458;49.728;9.228;2023-07-31T10:45:02;24.10;49.20
2897;DHT22;1458;49.728;9.228;2023-07-31T10:47:31;24.50;46.70
2897;DHT22;1458;49.728;9.228;2023-07-31T10:50:18;24.50;46.50
2897;DHT22;1458;49.728;9.228;2023-07-31T10:52:47;24.80;43.40
2897;DHT22;1458;49.728;9.228;2023-07-31T10:55:24;24.70;43.70
2897;DHT22;1458;49.728;9.228;2023-07-31T10:57:52;24.90;42.80
2897;DHT22;1458;49.728;9.228;2023-07-31T11:00:25;25.00;41.60
2897;DHT22;1458;49.728;9.228;2023-07-31T11:03:12;25.20;44.00
2897;DHT22;1458;49.728;9.228;2023-07-31T11:05:52;25.70;42.60
2897;DHT22;1458;49.728;9.228;2023-07-31T11:08:22;26.20;40.20
2897;DHT22;1458;49.728;9.228;2023-07-31T11:10:51;26.10;37.50
2897;DHT22;1458;49.728;9.228;2023-07-31T11:13:32;25.60;38.50
2897;DHT22;1458;49.728;9.228;2023-07-31T11:16:02;25.40;40.70
2897;DHT22;1458;49.728;9.228;2023-07-31T11:18:30;25.90;41.00
2897;DHT22;1458;49.728;9.228;2023-07-31T11:20:57;25.80;41.00
2897;DHT22;1458;49.728;9.228;2023-07-31T11:23:25;25.00;41.00
2897;DHT22;1458;49.728;9.228;2023-07-31T11:25:52;24.90;41.20
2897;DHT22;1458;49.728;9.228;2023-07-31T11:28:19;24.30;43.80
2897;DHT22;1458;49.728;9.228;2023-07-31T11:30:47;24.00;44.10
2897;DHT22;1458;49.728;9.228;2023-07-31T11:33:16;23.60;46.20
2897;DHT22;1458;49.728;9.228;2023-07-31T11:35:45;23.40;47.30
2897;DHT22;1458;49.728;9.228;2023-07-31T11:38:21;23.60;48.30
2897;DHT22;1458;49.728;9.228;2023-07-31T11:40:50;23.80;48.30
2897;DHT22;1458;49.728;9.228;2023-07-31T11:43:19;23.80;46.80
2897;DHT22;1458;49.728;9.228;2023-07-31T11:45:48;23.90;48.10
2897;DHT22;1458;49.728;9.228;2023-07-31T11:48:23;24.10;46.70
2897;DHT22;1458;49.728;9.228;2023-07-31T11:50:53;23.90;48.50
2897;DHT22;1458;49.728;9.228;2023-07-31T11:53:27;23.80;48.50
2897;DHT22;1458;49.728;9.228;2023-07-31T11:55:58;24.20;50.30
2897;DHT22;1458;49.728;9.228;2023-07-31T11:58:27;25.00;46.50
2897;DHT22;1458;49.728;9.228;2023-07-31T12:00:56;25.40;45.00
2897;DHT22;1458;49.728;9.228;2023-07-31T12:03:26;25.30;44.30
2897;DHT22;1458;49.728;9.228;2023-07-31T12:05:54;25.00;43.80
2897;DHT22;1458;49.728;9.228;2023-07-31T12:08:23;24.30;44.70
2897;DHT22;1458;49.728;9.228;2023-07-31T12:10:51;23.60;47.00
2897;DHT22;1458;49.728;9.228;2023-07-31T12:13:21;23.40;50.30
2897;DHT22;1458;49.728;9.228;2023-07-31T12:15:53;23.40;52.10
2897;DHT22;1458;49.728;9.228;2023-07-31T12:18:22;23.30;54.10
2897;DHT22;1458;49.728;9.228;2023-07-31T12:20:55;23.10;57.30
2897;DHT22;1458;49.728;9.228;2023-07-31T12:23:25;22.90;60.70
2897;DHT22;1458;49.728;9.228;2023-07-31T12:26:02;22.80;61.60
2897;DHT22;1458;49.728;9.228;2023-07-31T12:28:30;22.70;61.50
2897;DHT22;1458;49.728;9.228;2023-07-31T12:31:01;23.00;61.70
2897;DHT22;1458;49.728;9.228;2023-07-31T12:33:31;23.80;62.30
2897;DHT22;1458;49.728;9.228;2023-07-31T12:36:02;24.20;58.30
2897;DHT22;1458;49.728;9.228;2023-07-31T12:38:30;24.20;53.50
2897;DHT22;1458;49.728;9.228;2023-07-31T12:40:58;24.50;54.00
2897;DHT22;1458;49.728;9.228;2023-07-31T12:43:25;24.30;51.90
2897;DHT22;1458;49.728;9.228;2023-07-31T12:45:55;24.10;52.90
2897;DHT22;1458;49.728;9.228;2023-07-31T12:48:22;24.10;52.70
2897;DHT22;1458;49.728;9.228;2023-07-31T12:50:50;24.40;50.40
2897;DHT22;1458;49.728;9.228;2023-07-31T12:53:19;24.30;50.30
2897;DHT22;1458;49.728;9.228;2023-07-31T12:55:46;24.20;50.20
2897;DHT22;1458;49.728;9.228;2023-07-31T12:58:14;24.30;48.00
2897;DHT22;1458;49.728;9.228;2023-07-31T13:00:41;24.60;50.70
2897;DHT22;1458;49.728;9.228;2023-07-31T13:03:09;24.90;48.00
2897;DHT22;1458;49.728;9.228;2023-07-31T13:05:37;24.80;47.60
2897;DHT22;1458;49.728;9.228;2023-07-31T13:08:05;24.80;46.50
2897;DHT22;1458;49.728;9.228;2023-07-31T13:10:34;24.50;48.10
2897;DHT22;1458;49.728;9.228;2023-07-31T13:13:02;24.10;46.30
2897;DHT22;1458;49.728;9.228;2023-07-31T13:15:29;24.10;49.10
2897;DHT22;1458;49.728;9.228;2023-07-31T13:17:57;24.40;48.60
2897;DHT22;1458;49.728;9.228;2023-07-31T13:20:25;24.60;45.10
2897;DHT22;1458;49.728;9.228;2023-07-31T13:22:53;24.80;46.20
2897;DHT22;1458;49.728;9.228;2023-07-31T13:25:20;25.00;46.90
2897;DHT22;1458;49.728;9.228;2023-07-31T13:27:49;25.00;46.40
2897;DHT22;1458;49.728;9.228;2023-07-31T13:30:17;25.20;46.30
2897;DHT22;1458;49.728;9.228;2023-07-31T13:32:44;25.20;46.20
2897;DHT22;1458;49.728;9.228;2023-07-31T13:35:11;25.30;43.90
2897;DHT22;1458;49.728;9.228;2023-07-31T13:37:39;25.00;43.90
2897;DHT22;1458;49.728;9.228;2023-07-31T13:40:07;24.50;45.70
2897;DHT22;1458;49.728;9.228;2023-07-31T13:42:35;24.30;47.40
2897;DHT22;1458;49.728;9.228;2023-07-31T13:45:05;24.30;48.00
2897;DHT22;1458;49.728;9.228;2023-07-31T13:47:33;24.60;47.40
2897;DHT22;1458;49.728;9.228;2023-07-31T13:50:03;24.40;48.10
2897;DHT22;1458;49.728;9.228;2023-07-31T13:52:31;24.70;48.30
2897;DHT22;1458;49.728;9.228;2023-07-31T13:54:59;24.90;49.50
2897;DHT22;1458;49.728;9.228;2023-07-31T13:57:26;24.70;46.80
2897;DHT22;1458;49.728;9.228;2023-07-31T13:59:54;24.70;46.20
2897;DHT22;1458;49.728;9.228;2023-07-31T14:02:23;24.90;45.40
2897;DHT22;1458;49.728;9.228;2023-07-31T14:04:50;24.70;45.80
2897;DHT22;1458;49.728;9.228;2023-07-31T14:07:17;24.40;45.40
2897;DHT22;1458;49.728;9.228;2023-07-31T14:09:45;24.30;46.60
2897;DHT22;1458;49.728;9.228;2023-07-31T14:12:12;24.40;48.00
2897;DHT22;1458;49.728;9.228;2023-07-31T14:14:40;24.60;48.00
2897;DHT22;1458;49.728;9.228;2023-07-31T14:17:07;24.40;45.40
2897;DHT22;1458;49.728;9.228;2023-07-31T14:19:36;24.00;46.60
2897;DHT22;1458;49.728;9.228;2023-07-31T14:22:05;23.80;48.40
2897;DHT22;1458;49.728;9.228;2023-07-31T14:24:32;23.70;48.40
2897;DHT22;1458;49.728;9.228;2023-07-31T14:27:00;24.00;50.00
2897;DHT22;1458;49.728;9.228;2023-07-31T14:29:28;24.40;50.40
2897;DHT22;1458;49.728;9.228;2023-07-31T14:31:56;24.80;47.90
2897;DHT22;1458;49.728;9.228;2023-07-31T14:34:23;24.80;45.10
2897;DHT22;1458;49.728;9.228;2023-07-31T14:36:52;24.70;45.10
2897;DHT22;1458;49.728;9.228;2023-07-31T14:39:20;24.60;46.40
2897;DHT22;1458;49.728;9.228;2023-07-31T14:41:47;24.70;46.30
2897;DHT22;1458;49.728;9.228;2023-07-31T14:44:15;24.50;45.20
2897;DHT22;1458;49.728;9.228;2023-07-31T14:46:42;24.30;48.10
2897;DHT22;1458;49.728;9.228;2023-07-31T14:49:10;24.30;48.80
2897;DHT22;1458;49.728;9.228;2023-07-31T14:51:37;24.20;48.40
2897;DHT22;1458;49.728;9.228;2023-07-31T14:54:06;24.20;48.80
2897;DHT22;1458;49.728;9.228;2023-07-31T14:56:34;24.40;49.00
2897;DHT22;1458;49.728;9.228;2023-07-31T14:59:01;24.50;49.40
2897;DHT22;1458;49.728;9.228;2023-07-31T15:01:28;24.50;48.00
2897;DHT22;1458;49.728;9.228;2023-07-31T15:03:56;24.20;50.10
2897;DHT22;1458;49.728;9.228;2023-07-31T15:06:23;23.90;49.40
2897;DHT22;1458;49.728;9.228;2023-07-31T15:08:51;23.60;51.00
2897;DHT22;1458;49.728;9.228;2023-07-31T15:11:19;23.50;51.70
2897;DHT22;1458;49.728;9.228;2023-07-31T15:13:47;23.40;52.50
2897;DHT22;1458;49.728;9.228;2023-07-31T15:16:14;23.40;52.70
2897;DHT22;1458;49.728;9.228;2023-07-31T15:18:42;23.40;53.70
2897;DHT22;1458;49.728;9.228;2023-07-31T15:21:09;23.50;54.30
2897;DHT22;1458;49.728;9.228;2023-07-31T15:23:37;23.40;54.60
2897;DHT22;1458;49.728;9.228;2023-07-31T15:26:05;23.30;53.70
2897;DHT22;1458;49.728;9.228;2023-07-31T15:28:33;23.30;56.00
2897;DHT22;1458;49.728;9.228;2023-07-31T15:31:03;23.20;55.80
2897;DHT22;1458;49.728;9.228;2023-07-31T15:33:30;23.00;56.10
2897;DHT22;1458;49.728;9.228;2023-07-31T15:35:58;23.00;56.70
2897;DHT22;1458;49.728;9.228;2023-07-31T15:38:25;22.90;58.40
2897;DHT22;1458;49.728;9.228;2023-07-31T15:40:52;22.90;59.10
2897;DHT22;1458;49.728;9.228;2023-07-31T15:43:21;23.00;58.60
2897;DHT22;1458;49.728;9.228;2023-07-31T15:45:50;23.00;58.20
2897;DHT22;1458;49.728;9.228;2023-07-31T15:48:17;23.00;58.00
2897;DHT22;1458;49.728;9.228;2023-07-31T15:50:45;23.00;59.20
2897;DHT22;1458;49.728;9.228;2023-07-31T15:53:13;22.90;59.70
2897;DHT22;1458;49.728;9.228;2023-07-31T15:55:40;22.80;59.10
2897;DHT22;1458;49.728;9.228;2023-07-31T15:58:08;22.80;60.40
2897;DHT22;1458;49.728;9.228;2023-07-31T16:00:35;22.80;60.40
2897;DHT22;1458;49.728;9.228;2023-07-31T16:03:04;22.70;59.70
2897;DHT22;1458;49.728;9.228;2023-07-31T16:05:31;22.50;60.30
2897;DHT22;1458;49.728;9.228;2023-07-31T16:07:59;22.50;60.80
2897;DHT22;1458;49.728;9.228;2023-07-31T16:10:26;22.50;60.20